sensor_id;sensor_type;location;lat;lon;timestamp;temperature;humidity
13458;DHT22;6801;53.018;11.560;2024-02-14T00:02:17;4.20;84.30
13458;DHT22;6801;53.018;11.560;2024-02-14T00:04:44;4.20;84.30
13458;DHT22;6801;53.018;11.560;2024-02-14T00:07:11;4.20;84.30
13458;DHT22;6801;53.018;11.560;2024-02-14T00:09:38;4.20;84.30
13458;DHT22;6801;53.018;11.560;2024-02-14T00:12:05;4.20;84.20
13458;DHT22;6801;53.018;11.560;2024-02-14T00:14:33;4.10;84.20
13458;DHT22;6801;53.018;11.560;2024-02-14T00:17:00;4.10;84.20
13458;DHT22;6801;53.018;11.560;2024-02-14T00:19:27;4.10;84.30
13458;DHT22;6801;53.018;11.560;2024-02-14T00:21:54;4.10;84.30
13458;DHT22;6801;53.018;11.560;2024-02-14T00:24:21;4.10;84.30
13458;DHT22;6801;53.018;11.560;2024-02-14T00:26:49;4.10;84.30
13458;DHT22;6801;53.018;11.560;2024-02-14T00:29:16;4.10;84.40
13458;DHT22;6801;53.018;11.560;2024-02-14T00:31:45;4.10;84.30
13458;DHT22;6801;53.018;11.560;2024-02-14T00:34:11;4.10;84.40
13458;DHT22;6801;53.018;11.560;2024-02-14T00:36:38;4.10;84.50
13458;DHT22;6801;53.018;11.560;2024-02-14T00:39:05;4.10;84.50
13458;DHT22;6801;53.018;11.560;2024-02-14T00:41:34;4.10;84.50
13458;DHT22;6801;53.018;11.560;2024-02-14T00:44:01;4.00;84.50
13458;DHT22;6801;53.018;11.560;2024-02-14T00:46:29;4.00;84.40
13458;DHT22;6801;53.018;11.560;2024-02-14T00:48:57;4.00;84.30
13458;DHT22;6801;53.018;11.560;2024-02-14T00:51:25;4.00;84.40
13458;DHT22;6801;53.018;11.560;2024-02-14T00:53:52;4.00;84.40
13458;DHT22;6801;53.018;11.560;2024-02-14T00:56:19;4.00;84.40
13458;DHT22;6801;53.018;11.560;2024-02-14T00:58:46;4.00;84.40
13458;DHT22;6801;53.018;11.560;2024-02-14T01:01:13;3.90;84.20
13458;DHT22;6801;53.018;11.560;2024-02-14T01:03:40;3.90;84.30
13458;DHT22;6801;53.018;11.560;2024-02-14T01:06:08;3.80;84.20
13458;DHT22;6801;53.018;11.560;2024-02-14T01:08:35;3.80;84.30
13458;DHT22;6801;53.018;11.560;2024-02-14T01:11:03;3.80;84.30
13458;DHT22;6801;53.018;11.560;2024-02-14T01:13:30;3.80;84.30
13458;DHT22;6801;53.018;11.560;2024-02-14T01:15:57;3.80;84.40
13458;DHT22;6801;53.018;11.560;2024-02-14T01:18:24;3.80;84.40
13458;DHT22;6801;53.018;11.560;2024-02-14T01:20:51;3.80;84.60
13458;DHT22;6801;53.018;11.560;2024-02-14T01:23:20;3.80;84.80
13458;DHT22;6801;53.018;11.560;2024-02-14T01:25:47;3.80;84.80
13458;DHT22;6801;53.018;11.560;2024-02-14T01:28:14;3.80;84.80
13458;DHT22;6801;53.018;11.560;2024-02-14T01:30:40;3.80;84.70
13458;DHT22;6801;53.018;11.560;2024-02-14T01:33:07;3.80;84.60
13458;DHT22;6801;53.018;11.560;2024-02-14T01:35:34;3.70;84.60
13458;DHT22;6801;53.018;11.560;2024-02-14T01:38:01;3.70;84.70
13458;DHT22;6801;53.018;11.560;2024-02-14T01:40:30;3.80;84.70
13458;DHT22;6801;53.018;11.560;2024-02-14T01:42:57;3.80;84.70
13458;DHT22;6801;53.018;11.560;2024-02-14T01:45:24;3.70;84.70
13458;DHT22;6801;53.018;11.560;2024-02-14T01:47:51;3.70;84.70
13458;DHT22;6801;53.018;11.560;2024-02-14T01:50:19;3.70;84.70
13458;DHT22;6801;53.018;11.560;2024-02-14T01:52:54;3.70;84.70
13458;DHT22;6801;53.018;11.560;2024-02-14T01:55:22;3.70;84.80
13458;DHT22;6801;53.018;11.560;2024-02-14T01:57:50;3.70;84.70
13458;DHT22;6801;53.018;11.560;2024-02-14T02:00:17;3.70;84.80
13458;DHT22;6801;53.018;11.560;2024-02-14T02:02:45;3.70;84.80
13458;DHT22;6801;53.018;11.560;2024-02-14T02:05:17;3.70;84.90
13458;DHT22;6801;53.018;11.560;2024-02-14T02:07:44;3.70;84.90
13458;DHT22;6801;53.018;11.560;2024-02-14T02:10:14;3.70;85.00
13458;DHT22;6801;53.018;11.560;2024-02-14T02:12:41;3.70;85.00
13458;DHT22;6801;53.018;11.560;2024-02-14T02:15:09;3.70;85.00
13458;DHT22;6801;53.018;11.560;2024-02-14T02:17:39;3.70;85.10
13458;DHT22;6801;53.018;11.560;2024-02-14T02:20:07;3.70;85.20
13458;DHT22;6801;53.018;11.560;2024-02-14T02:22:34;3.70;85.20
13458;DHT22;6801;53.018;11.560;2024-02-14T02:25:04;3.70;85.30
13458;DHT22;6801;53.018;11.560;2024-02-14T02:27:32;3.80;85.40
13458;DHT22;6801;53.018;11.560;2024-02-14T02:30:01;3.80;85.40
13458;DHT22;6801;53.018;11.560;2024-02-14T02:32:30;3.80;85.40
13458;DHT22;6801;53.018;11.560;2024-02-14T02:34:57;3.80;85.40
13458;DHT22;6801;53.018;11.560;2024-02-14T02:37:25;3.90;85.50
13458;DHT22;6801;53.018;11.560;2024-02-14T02:39:52;3.90;85.50
13458;DHT22;6801;53.018;11.560;2024-02-14T02:42:20;3.90;85.60
13458;DHT22;6801;53.018;11.560;2024-02-14T02:44:48;3.90;85.60
13458;DHT22;6801;53.018;11.560;2024-02-14T02:47:16;4.00;85.60
13458;DHT22;6801;53.018;11.560;2024-02-14T02:49:43;4.00;85.70
13458;DHT22;6801;53.018;11.560;2024-02-14T02:52:10;4.00;85.70
13458;DHT22;6801;53.018;11.560;2024-02-14T02:54:37;4.00;85.70
13458;DHT22;6801;53.018;11.560;2024-02-14T02:57:07;4.00;85.70
13458;DHT22;6801;53.018;11.560;2024-02-14T02:59:36;4.00;85.70
13458;DHT22;6801;53.018;11.560;2024-02-14T03:02:03;4.10;85.80
13458;DHT22;6801;53.018;11.560;2024-02-14T03:04:35;4.10;85.70
13458;DHT22;6801;53.018;11.560;2024-02-14T03:07:02;4.10;85.80
13458;DHT22;6801;53.018;11.560;2024-02-14T03:09:32;4.10;85.80
13458;DHT22;6801;53.018;11.560;2024-02-14T03:11:59;4.10;85.80
13458;DHT22;6801;53.018;11.560;2024-02-14T03:14:28;4.20;85.80
13458;DHT22;6801;53.018;11.560;2024-02-14T03:16:59;4.20;85.80
13458;DHT22;6801;53.018;11.560;2024-02-14T03:19:27;4.20;85.80
13458;DHT22;6801;53.018;11.560;2024-02-14T03:21:54;4.20;85.80
13458;DHT22;6801;53.018;11.560;2024-02-14T03:24:21;4.20;85.80
13458;DHT22;6801;53.018;11.560;2024-02-14T03:26:51;4.20;85.70
13458;DHT22;6801;53.018;11.560;2024-02-14T03:29:19;4.20;85.80
13458;DHT22;6801;53.018;11.560;2024-02-14T03:31:46;4.20;85.80
13458;DHT22;6801;53.018;11.560;2024-02-14T03:34:15;4.30;85.80
13458;DHT22;6801;53.018;11.560;2024-02-14T03:36:41;4.30;85.80
13458;DHT22;6801;53.018;11.560;2024-02-14T03:39:08;4.30;85.80
13458;DHT22;6801;53.018;11.560;2024-02-14T03:41:37;4.30;85.80
13458;DHT22;6801;53.018;11.560;2024-02-14T03:44:04;4.30;85.80
13458;DHT22;6801;53.018;11.560;2024-02-14T03:46:33;4.30;85.80
13458;DHT22;6801;53.018;11.560;2024-02-14T03:49:02;4.30;85.80
13458;DHT22;6801;53.018;11.560;2024-02-14T03:51:30;4.30;85.80
13458;DHT22;6801;53.018;11.560;2024-02-14T03:53:57;4.30;85.80
13458;DHT22;6801;53.018;11.560;2024-02-14T03:56:24;4.30;85.80
13458;DHT22;6801;53.018;11.560;2024-02-14T03:58:51;4.40;85.80
13458;DHT22;6801;53.018;11.560;2024-02-14T04:01:18;4.30;85.80
13458;DHT22;6801;53.018;11.560;2024-02-14T04:03:46;4.40;85.80
13458;DHT22;6801;53.018;11.560;2024-02-14T04:06:14;4.40;85.80
13458;DHT22;6801;53.018;11.560;2024-02-14T04:08:43;4.40;85.80
13458;DHT22;6801;53.018;11.560;2024-02-14T04:11:10;4.40;85.80
13458;DHT22;6801;53.018;11.560;2024-02-14T04:13:39;4.40;85.80
13458;DHT22;6801;53.018;11.560;2024-02-14T04:16:07;4.50;85.90
13458;DHT22;6801;53.018;11.560;2024-02-14T04:18:34;4.50;85.90
13458;DHT22;6801;53.018;11.560;2024-02-14T04:21:01;4.50;85.90
13458;DHT22;6801;53.018;11.560;2024-02-14T04:23:29;4.50;85.90
13458;DHT22;6801;53.018;11.560;2024-02-14T04:25:58;4.50;85.90
13458;DHT22;6801;53.018;11.560;2024-02-14T04:28:25;4.50;85.90
13458;DHT22;6801;53.018;11.560;2024-02-14T04:30:52;4.50;85.90
13458;DHT22;6801;53.018;11.560;2024-02-14T04:33:21;4.50;85.90
13458;DHT22;6801;53.018;11.560;2024-02-14T04:35:48;4.50;86.00
13458;DHT22;6801;53.018;11.560;2024-02-14T04:38:15;4.50;86.00
13458;DHT22;6801;53.018;11.560;2024-02-14T04:40:44;4.50;86.00
13458;DHT22;6801;53.018;11.560;2024-02-14T04:43:12;4.50;86.10
13458;DHT22;6801;53.018;11.560;2024-02-14T04:45:39;4.50;86.00
13458;DHT22;6801;53.018;11.560;2024-02-14T04:48:07;4.50;86.00
13458;DHT22;6801;53.018;11.560;2024-02-14T04:50:34;4.50;86.00
13458;DHT22;6801;53.018;11.560;2024-02-14T04:53:01;4.50;86.00
13458;DHT22;6801;53.018;11.560;2024-02-14T04:55:28;4.50;86.00
13458;DHT22;6801;53.018;11.560;2024-02-14T04:57:55;4.50;86.00
13458;DHT22;6801;53.018;11.560;2024-02-14T05:00:23;4.50;86.00
13458;DHT22;6801;53.018;11.560;2024-02-14T05:02:50;4.50;86.00
13458;DHT22;6801;53.018;11.560;2024-02-14T05:05:17;4.50;86.10
13458;DHT22;6801;53.018;11.560;2024-02-14T05:07:46;4.50;86.10
13458;DHT22;6801;53.018;11.560;2024-02-14T05:10:13;4.50;86.00
13458;DHT22;6801;53.018;11.560;2024-02-14T05:12:40;4.50;86.10
13458;DHT22;6801;53.018;11.560;2024-02-14T05:15:08;4.50;86.10
13458;DHT22;6801;53.018;11.560;2024-02-14T05:17:36;4.50;86.10
13458;DHT22;6801;53.018;11.560;2024-02-14T05:20:04;4.50;86.10
13458;DHT22;6801;53.018;11.560;2024-02-14T05:22:35;4.50;86.20
13458;DHT22;6801;53.018;11.560;2024-02-14T05:25:03;4.50;86.10
13458;DHT22;6801;53.018;11.560;2024-02-14T05:27:30;4.50;86.20
13458;DHT22;6801;53.018;11.560;2024-02-14T05:29:57;4.50;86.20
13458;DHT22;6801;53.018;11.560;2024-02-14T05:32:24;4.50;86.20
13458;DHT22;6801;53.018;11.560;2024-02-14T05:34:52;4.60;86.20
13458;DHT22;6801;53.018;11.560;2024-02-14T05:37:20;4.60;86.20
13458;DHT22;6801;53.018;11.560;2024-02-14T05:39:47;4.60;86.20
13458;DHT22;6801;53.018;11.560;2024-02-14T05:42:14;4.60;86.20
13458;DHT22;6801;53.018;11.560;2024-02-14T05:44:41;4.60;86.20
13458;DHT22;6801;53.018;11.560;2024-02-14T05:47:10;4.60;86.20
13458;DHT22;6801;53.018;11.560;2024-02-14T05:49:38;4.60;86.30
13458;DHT22;6801;53.018;11.560;2024-02-14T05:52:07;4.60;86.30
13458;DHT22;6801;53.018;11.560;2024-02-14T05:54:34;4.60;86.30
13458;DHT22;6801;53.018;11.560;2024-02-14T05:57:01;4.60;86.30
13458;DHT22;6801;53.018;11.560;2024-02-14T05:59:28;4.60;86.30
13458;DHT22;6801;53.018;11.560;2024-02-14T06:01:56;4.60;86.20
13458;DHT22;6801;53.018;11.560;2024-02-14T06:04:23;4.60;86.30
13458;DHT22;6801;53.018;11.560;2024-02-14T06:06:50;4.60;86.30
13458;DHT22;6801;53.018;11.560;2024-02-14T06:09:18;4.60;86.30
13458;DHT22;6801;53.018;11.560;2024-02-14T06:11:45;4.60;86.30
13458;DHT22;6801;53.018;11.560;2024-02-14T06:14:12;4.60;86.30
13458;DHT22;6801;53.018;11.560;2024-02-14T06:16:39;4.60;86.30
13458;DHT22;6801;53.018;11.560;2024-02-14T06:19:06;4.60;86.30
13458;DHT22;6801;53.018;11.560;2024-02-14T06:21:34;4.60;86.30
13458;DHT22;6801;53.018;11.560;2024-02-14T06:24:01;4.60;86.30
13458;DHT22;6801;53.018;11.560;2024-02-14T06:26:31;4.70;86.40
13458;DHT22;6801;53.018;11.560;2024-02-14T06:28:59;4.60;86.40
13458;DHT22;6801;53.018;11.560;2024-02-14T06:31:26;4.70;86.40
13458;DHT22;6801;53.018;11.560;2024-02-14T06:33:53;4.70;86.40
13458;DHT22;6801;53.018;11.560;2024-02-14T06:36:20;4.70;86.40
13458;DHT22;6801;53.018;11.560;2024-02-14T06:38:47;4.70;86.40
13458;DHT22;6801;53.018;11.560;2024-02-14T06:41:15;4.70;86.50
13458;DHT22;6801;53.018;11.560;2024-02-14T06:43:43;4.70;86.50
13458;DHT22;6801;53.018;11.560;2024-02-14T06:46:10;4.70;86.50
13458;DHT22;6801;53.018;11.560;2024-02-14T06:48:37;4.70;86.50
13458;DHT22;6801;53.018;11.560;2024-02-14T06:51:05;4.80;86.50
13458;DHT22;6801;53.018;11.560;2024-02-14T06:53:32;4.70;86.60
13458;DHT22;6801;53.018;11.560;2024-02-14T06:56:00;4.80;86.60
13458;DHT22;6801;53.018;11.560;2024-02-14T06:58:27;4.80;86.60
13458;DHT22;6801;53.018;11.560;2024-02-14T07:00:55;4.80;86.60
13458;DHT22;6801;53.018;11.560;2024-02-14T07:03:22;4.80;86.70
13458;DHT22;6801;53.018;11.560;2024-02-14T07:05:49;4.80;86.60
13458;DHT22;6801;53.018;11.560;2024-02-14T07:08:16;4.80;86.70
13458;DHT22;6801;53.018;11.560;2024-02-14T07:10:43;4.80;86.80
13458;DHT22;6801;53.018;11.560;2024-02-14T07:13:10;4.90;86.80
13458;DHT22;6801;53.018;11.560;2024-02-14T07:15:37;4.90;86.90
13458;DHT22;6801;53.018;11.560;2024-02-14T07:18:06;4.90;86.90
13458;DHT22;6801;53.018;11.560;2024-02-14T07:20:35;4.90;87.00
13458;DHT22;6801;53.018;11.560;2024-02-14T07:23:02;4.90;87.00
13458;DHT22;6801;53.018;11.560;2024-02-14T07:25:29;4.90;87.00
13458;DHT22;6801;53.018;11.560;2024-02-14T07:27:56;4.90;87.00
13458;DHT22;6801;53.018;11.560;2024-02-14T07:30:23;4.90;87.00
13458;DHT22;6801;53.018;11.560;2024-02-14T07:32:51;4.90;87.10
13458;DHT22;6801;53.018;11.560;2024-02-14T07:35:19;4.90;87.10
13458;DHT22;6801;53.018;11.560;2024-02-14T07:37:46;4.90;87.10
13458;DHT22;6801;53.018;11.560;2024-02-14T07:40:14;4.90;87.10
13458;DHT22;6801;53.018;11.560;2024-02-14T07:42:41;5.00;87.20
13458;DHT22;6801;53.018;11.560;2024-02-14T07:45:08;5.00;87.20
13458;DHT22;6801;53.018;11.560;2024-02-14T07:47:35;5.00;87.20
13458;DHT22;6801;53.018;11.560;2024-02-14T07:50:03;5.00;87.20
13458;DHT22;6801;53.018;11.560;2024-02-14T07:52:31;5.00;87.30
13458;DHT22;6801;53.018;11.560;2024-02-14T07:54:58;5.00;87.30
13458;DHT22;6801;53.018;11.560;2024-02-14T07:57:25;5.00;87.30
13458;DHT22;6801;53.018;11.560;2024-02-14T07:59:53;5.00;87.30
13458;DHT22;6801;53.018;11.560;2024-02-14T08:02:20;5.10;87.30
13458;DHT22;6801;53.018;11.560;2024-02-14T08:04:47;5.00;87.30
13458;DHT22;6801;53.018;11.560;2024-02-14T08:07:14;5.00;87.30
13458;DHT22;6801;53.018;11.560;2024-02-14T08:09:42;5.00;87.30
13458;DHT22;6801;53.018;11.560;2024-02-14T08:12:09;5.00;87.30
13458;DHT22;6801;53.018;11.560;2024-02-14T08:14:36;5.00;87.40
13458;DHT22;6801;53.018;11.560;2024-02-14T08:17:03;5.00;87.40
13458;DHT22;6801;53.018;11.560;2024-02-14T08:19:30;5.10;87.40
13458;DHT22;6801;53.018;11.560;2024-02-14T08:21:57;5.10;87.40
13458;DHT22;6801;53.018;11.560;2024-02-14T08:24:25;5.10;87.50
13458;DHT22;6801;53.018;11.560;2024-02-14T08:26:54;5.20;87.60
13458;DHT22;6801;53.018;11.560;2024-02-14T08:29:21;5.20;87.70
13458;DHT22;6801;53.018;11.560;2024-02-14T08:31:48;5.20;87.80
13458;DHT22;6801;53.018;11.560;2024-02-14T08:34:15;5.30;87.90
13458;DHT22;6801;53.018;11.560;2024-02-14T08:36:42;5.30;88.10
13458;DHT22;6801;53.018;11.560;2024-02-14T08:39:10;5.30;88.20
13458;DHT22;6801;53.018;11.560;2024-02-14T08:41:37;5.40;88.20
13458;DHT22;6801;53.018;11.560;2024-02-14T08:44:05;5.40;88.20
13458;DHT22;6801;53.018;11.560;2024-02-14T08:46:32;5.40;88.20
13458;DHT22;6801;53.018;11.560;2024-02-14T08:49:00;5.50;88.20
13458;DHT22;6801;53.018;11.560;2024-02-14T08:51:28;5.50;88.20
13458;DHT22;6801;53.018;11.560;2024-02-14T08:53:54;5.50;88.10
13458;DHT22;6801;53.018;11.560;2024-02-14T08:56:25;5.50;88.20
13458;DHT22;6801;53.018;11.560;2024-02-14T08:58:52;5.50;88.20
13458;DHT22;6801;53.018;11.560;2024-02-14T09:01:20;5.50;88.20
13458;DHT22;6801;53.018;11.560;2024-02-14T09:03:47;5.60;88.20
13458;DHT22;6801;53.018;11.560;2024-02-14T09:06:15;5.60;88.20
13458;DHT22;6801;53.018;11.560;2024-02-14T09:08:44;5.60;88.20
13458;DHT22;6801;53.018;11.560;2024-02-14T09:11:11;5.60;88.10
13458;DHT22;6801;53.018;11.560;2024-02-14T09:13:38;5.60;88.20
13458;DHT22;6801;53.018;11.560;2024-02-14T09:16:07;5.60;88.20
13458;DHT22;6801;53.018;11.560;2024-02-14T09:18:36;5.70;88.20
13458;DHT22;6801;53.018;11.560;2024-02-14T09:21:03;5.70;88.30
13458;DHT22;6801;53.018;11.560;2024-02-14T09:23:31;5.70;88.30
13458;DHT22;6801;53.018;11.560;2024-02-14T09:25:59;5.70;88.40
13458;DHT22;6801;53.018;11.560;2024-02-14T09:28:25;5.70;88.40
13458;DHT22;6801;53.018;11.560;2024-02-14T09:30:53;5.70;88.40
13458;DHT22;6801;53.018;11.560;2024-02-14T09:33:20;5.80;88.40
13458;DHT22;6801;53.018;11.560;2024-02-14T09:35:50;5.80;88.40
13458;DHT22;6801;53.018;11.560;2024-02-14T09:38:18;5.80;88.30
13458;DHT22;6801;53.018;11.560;2024-02-14T09:40:46;5.80;88.40
13458;DHT22;6801;53.018;11.560;2024-02-14T09:43:22;5.80;88.40
13458;DHT22;6801;53.018;11.560;2024-02-14T09:45:52;5.90;88.40
13458;DHT22;6801;53.018;11.560;2024-02-14T09:48:21;5.90;88.30
13458;DHT22;6801;53.018;11.560;2024-02-14T09:50:53;5.90;88.30
13458;DHT22;6801;53.018;11.560;2024-02-14T09:53:22;6.00;88.30
13458;DHT22;6801;53.018;11.560;2024-02-14T09:55:53;6.00;88.30
13458;DHT22;6801;53.018;11.560;2024-02-14T09:58:22;6.00;88.30
13458;DHT22;6801;53.018;11.560;2024-02-14T10:00:51;6.00;88.30
13458;DHT22;6801;53.018;11.560;2024-02-14T10:03:19;6.00;88.20
13458;DHT22;6801;53.018;11.560;2024-02-14T10:05:47;6.10;88.30
13458;DHT22;6801;53.018;11.560;2024-02-14T10:08:17;6.10;88.30
13458;DHT22;6801;53.018;11.560;2024-02-14T10:10:46;6.20;88.40
13458;DHT22;6801;53.018;11.560;2024-02-14T10:13:15;6.20;88.40
13458;DHT22;6801;53.018;11.560;2024-02-14T10:15:43;6.20;88.40
13458;DHT22;6801;53.018;11.560;2024-02-14T10:18:11;6.30;88.40
13458;DHT22;6801;53.018;11.560;2024-02-14T10:20:51;6.30;88.40
13458;DHT22;6801;53.018;11.560;2024-02-14T10:23:21;6.30;88.50
13458;DHT22;6801;53.018;11.560;2024-02-14T10:25:50;6.40;88.40
13458;DHT22;6801;53.018;11.560;2024-02-14T10:28:20;6.40;88.40
13458;DHT22;6801;53.018;11.560;2024-02-14T10:30:48;6.50;88.50
13458;DHT22;6801;53.018;11.560;2024-02-14T10:33:16;6.50;88.60
13458;DHT22;6801;53.018;11.560;2024-02-14T10:35:45;6.50;88.60
13458;DHT22;6801;53.018;11.560;2024-02-14T10:38:16;6.50;88.60
13458;DHT22;6801;53.018;11.560;2024-02-14T10:40:47;6.60;88.60
13458;DHT22;6801;53.018;11.560;2024-02-14T10:43:16;6.60;88.60
13458;DHT22;6801;53.018;11.560;2024-02-14T10:45:43;6.70;88.60
13458;DHT22;6801;53.018;11.560;2024-02-14T10:48:12;6.70;88.80
13458;DHT22;6801;53.018;11.560;2024-02-14T10:50:42;6.80;88.90
13458;DHT22;6801;53.018;11.560;2024-02-14T10:53:13;6.80;89.00
13458;DHT22;6801;53.018;11.560;2024-02-14T10:55:47;6.90;88.70
13458;DHT22;6801;53.018;11.560;2024-02-14T10:58:16;6.90;88.90
13458;DHT22;6801;53.018;11.560;2024-02-14T11:00:44;6.90;89.00
13458;DHT22;6801;53.018;11.560;2024-02-14T11:03:12;7.00;88.90
13458;DHT22;6801;53.018;11.560;2024-02-14T11:05:45;7.00;89.00
13458;DHT22;6801;53.018;11.560;2024-02-14T11:08:13;7.00;89.00
13458;DHT22;6801;53.018;11.560;2024-02-14T11:10:41;7.00;89.00
13458;DHT22;6801;53.018;11.560;2024-02-14T11:13:12;7.00;88.90
13458;DHT22;6801;53.018;11.560;2024-02-14T11:15:40;7.00;89.00
13458;DHT22;6801;53.018;11.560;2024-02-14T11:18:11;7.10;89.00
13458;DHT22;6801;53.018;11.560;2024-02-14T11:20:38;7.10;89.10
13458;DHT22;6801;53.018;11.560;2024-02-14T11:23:06;7.20;89.00
13458;DHT22;6801;53.018;11.560;2024-02-14T11:25:36;7.20;89.00
13458;DHT22;6801;53.018;11.560;2024-02-14T11:28:14;7.30;88.90
13458;DHT22;6801;53.018;11.560;2024-02-14T11:30:42;7.30;88.70
13458;DHT22;6801;53.018;11.560;2024-02-14T11:33:13;7.30;88.90
13458;DHT22;6801;53.018;11.560;2024-02-14T11:35:40;7.40;89.00
13458;DHT22;6801;53.018;11.560;2024-02-14T11:38:08;7.40;89.00
13458;DHT22;6801;53.018;11.560;2024-02-14T11:40:36;7.50;89.20
13458;DHT22;6801;53.018;11.560;2024-02-14T11:43:04;7.50;89.00
13458;DHT22;6801;53.018;11.560;2024-02-14T11:45:32;7.50;89.00
13458;DHT22;6801;53.018;11.560;2024-02-14T11:48:00;7.50;89.00
13458;DHT22;6801;53.018;11.560;2024-02-14T11:50:28;7.50;89.00
13458;DHT22;6801;53.018;11.560;2024-02-14T11:52:55;7.60;89.30
13458;DHT22;6801;53.018;11.560;2024-02-14T11:55:28;7.60;89.20
13458;DHT22;6801;53.018;11.560;2024-02-14T11:57:56;7.70;89.00
13458;DHT22;6801;53.018;11.560;2024-02-14T12:00:23;7.70;88.90
13458;DHT22;6801;53.018;11.560;2024-02-14T12:02:53;7.70;88.90
13458;DHT22;6801;53.018;11.560;2024-02-14T12:05:20;7.70;88.90
13458;DHT22;6801;53.018;11.560;2024-02-14T12:07:47;7.70;88.90
13458;DHT22;6801;53.018;11.560;2024-02-14T12:10:14;7.80;89.00
13458;DHT22;6801;53.018;11.560;2024-02-14T12:12:45;7.90;89.10
13458;DHT22;6801;53.018;11.560;2024-02-14T12:15:12;7.90;88.90
13458;DHT22;6801;53.018;11.560;2024-02-14T12:17:41;7.90;88.90
13458;DHT22;6801;53.018;11.560;2024-02-14T12:20:11;8.00;89.00
13458;DHT22;6801;53.018;11.560;2024-02-14T12:22:38;8.00;89.20
13458;DHT22;6801;53.018;11.560;2024-02-14T12:25:06;8.00;89.00
13458;DHT22;6801;53.018;11.560;2024-02-14T12:27:33;8.00;89.00
13458;DHT22;6801;53.018;11.560;2024-02-14T12:30:03;8.10;88.90
13458;DHT22;6801;53.018;11.560;2024-02-14T12:32:30;8.10;88.90
13458;DHT22;6801;53.018;11.560;2024-02-14T12:34:58;8.10;88.90
13458;DHT22;6801;53.018;11.560;2024-02-14T12:37:27;8.10;88.90
13458;DHT22;6801;53.018;11.560;2024-02-14T12:39:54;8.20;88.80
13458;DHT22;6801;53.018;11.560;2024-02-14T12:42:21;8.20;88.80
13458;DHT22;6801;53.018;11.560;2024-02-14T12:44:51;8.30;88.80
13458;DHT22;6801;53.018;11.560;2024-02-14T12:47:19;8.30;88.80
13458;DHT22;6801;53.018;11.560;2024-02-14T12:49:47;8.30;88.80
13458;DHT22;6801;53.018;11.560;2024-02-14T12:52:15;8.30;88.80
13458;DHT22;6801;53.018;11.560;2024-02-14T12:54:44;8.40;88.80
13458;DHT22;6801;53.018;11.560;2024-02-14T12:57:14;8.40;88.80
13458;DHT22;6801;53.018;11.560;2024-02-14T12:59:41;8.50;88.80
13458;DHT22;6801;53.018;11.560;2024-02-14T13:02:08;8.50;88.90
13458;DHT22;6801;53.018;11.560;2024-02-14T13:04:36;8.50;88.90
13458;DHT22;6801;53.018;11.560;2024-02-14T13:07:04;8.50;88.90
13458;DHT22;6801;53.018;11.560;2024-02-14T13:09:31;8.60;88.90
13458;DHT22;6801;53.018;11.560;2024-02-14T13:11:59;8.60;88.80
13458;DHT22;6801;53.018;11.560;2024-02-14T13:14:26;8.70;88.70
13458;DHT22;6801;53.018;11.560;2024-02-14T13:16:54;8.70;88.80
13458;DHT22;6801;53.018;11.560;2024-02-14T13:19:21;8.70;88.80
13458;DHT22;6801;53.018;11.560;2024-02-14T13:21:49;8.70;88.80
13458;DHT22;6801;53.018;11.560;2024-02-14T13:24:16;8.70;88.70
13458;DHT22;6801;53.018;11.560;2024-02-14T13:26:43;8.80;88.60
13458;DHT22;6801;53.018;11.560;2024-02-14T13:29:12;8.80;88.60
13458;DHT22;6801;53.018;11.560;2024-02-14T13:31:39;8.80;88.70
13458;DHT22;6801;53.018;11.560;2024-02-14T13:34:06;8.80;89.10
13458;DHT22;6801;53.018;11.560;2024-02-14T13:36:34;8.90;88.70
13458;DHT22;6801;53.018;11.560;2024-02-14T13:39:01;8.90;88.70
13458;DHT22;6801;53.018;11.560;2024-02-14T13:41:28;8.90;88.60
13458;DHT22;6801;53.018;11.560;2024-02-14T13:43:55;8.90;88.70
13458;DHT22;6801;53.018;11.560;2024-02-14T13:46:24;8.90;88.80
13458;DHT22;6801;53.018;11.560;2024-02-14T13:48:51;9.00;88.70
13458;DHT22;6801;53.018;11.560;2024-02-14T13:51:18;9.00;88.70
13458;DHT22;6801;53.018;11.560;2024-02-14T13:53:46;9.00;88.70
13458;DHT22;6801;53.018;11.560;2024-02-14T13:56:13;9.00;88.70
13458;DHT22;6801;53.018;11.560;2024-02-14T13:58:41;9.00;88.70
13458;DHT22;6801;53.018;11.560;2024-02-14T14:01:10;9.10;88.70
13458;DHT22;6801;53.018;11.560;2024-02-14T14:03:38;9.10;88.50
13458;DHT22;6801;53.018;11.560;2024-02-14T14:06:06;9.10;88.60
13458;DHT22;6801;53.018;11.560;2024-02-14T14:08:34;9.10;88.40
13458;DHT22;6801;53.018;11.560;2024-02-14T14:11:02;9.10;88.40
13458;DHT22;6801;53.018;11.560;2024-02-14T14:13:29;9.10;88.30
13458;DHT22;6801;53.018;11.560;2024-02-14T14:15:56;9.20;88.50
13458;DHT22;6801;53.018;11.560;2024-02-14T14:18:23;9.20;88.50
13458;DHT22;6801;53.018;11.560;2024-02-14T14:20:52;9.10;88.40
13458;DHT22;6801;53.018;11.560;2024-02-14T14:23:19;9.20;88.50
13458;DHT22;6801;53.018;11.560;2024-02-14T14:25:45;9.20;88.50
13458;DHT22;6801;53.018;11.560;2024-02-14T14:28:12;9.30;88.50
13458;DHT22;6801;53.018;11.560;2024-02-14T14:30:40;9.20;88.40
13458;DHT22;6801;53.018;11.560;2024-02-14T14:33:07;9.30;88.40
13458;DHT22;6801;53.018;11.560;2024-02-14T14:35:34;9.30;88.30
13458;DHT22;6801;53.018;11.560;2024-02-14T14:38:03;9.30;88.30
13458;DHT22;6801;53.018;11.560;2024-02-14T14:40:30;9.30;88.40
13458;DHT22;6801;53.018;11.560;2024-02-14T14:42:57;9.30;88.40
13458;DHT22;6801;53.018;11.560;2024-02-14T14:45:24;9.30;88.50
13458;DHT22;6801;53.018;11.560;2024-02-14T14:47:53;9.30;88.40
13458;DHT22;6801;53.018;11.560;2024-02-14T14:50:21;9.40;88.70
13458;DHT22;6801;53.018;11.560;2024-02-14T14:52:50;9.40;88.50
13458;DHT22;6801;53.018;11.560;2024-02-14T14:55:19;9.40;88.60
13458;DHT22;6801;53.018;11.560;2024-02-14T14:57:46;9.40;88.70
13458;DHT22;6801;53.018;11.560;2024-02-14T15:00:14;9.40;88.60
13458;DHT22;6801;53.018;11.560;2024-02-14T15:02:41;9.50;88.70
13458;DHT22;6801;53.018;11.560;2024-02-14T15:05:09;9.50;88.60
13458;DHT22;6801;53.018;11.560;2024-02-14T15:07:36;9.50;88.60
13458;DHT22;6801;53.018;11.560;2024-02-14T15:10:04;9.40;88.70
13458;DHT22;6801;53.018;11.560;2024-02-14T15:12:34;9.50;88.80
13458;DHT22;6801;53.018;11.560;2024-02-14T15:15:03;9.50;88.70
13458;DHT22;6801;53.018;11.560;2024-02-14T15:17:30;9.50;88.70
13458;DHT22;6801;53.018;11.560;2024-02-14T15:19:57;9.50;88.70
13458;DHT22;6801;53.018;11.560;2024-02-14T15:22:24;9.50;88.70
13458;DHT22;6801;53.018;11.560;2024-02-14T15:24:53;9.50;88.70
13458;DHT22;6801;53.018;11.560;2024-02-14T15:27:20;9.50;88.70
13458;DHT22;6801;53.018;11.560;2024-02-14T15:29:51;9.50;88.70
13458;DHT22;6801;53.018;11.560;2024-02-14T15:32:35;9.50;88.70
13458;DHT22;6801;53.018;11.560;2024-02-14T15:35:20;9.50;88.70
13458;DHT22;6801;53.018;11.560;2024-02-14T15:37:47;9.60;88.70
13458;DHT22;6801;53.018;11.560;2024-02-14T15:40:15;9.60;88.70
13458;DHT22;6801;53.018;11.560;2024-02-14T15:42:43;9.60;88.70
13458;DHT22;6801;53.018;11.560;2024-02-14T15:45:11;9.60;88.70
13458;DHT22;6801;53.018;11.560;2024-02-14T15:47:42;9.60;88.70
13458;DHT22;6801;53.018;11.560;2024-02-14T15:50:10;9.60;88.70